Time;durP1;ratioP1;P1;durP2;ratioP2;P2;SDS_P1;SDS_P2;PMS_P1;PMS_P2;Temp;Humidity;BMP_temperature;BMP_pressure;BME280_temperature;BME280_humidity;BME280_pressure;Samples;Min_cycle;Max_cycle;Signal;HPM_P1;HPM_P2
2022/01/19 00:01:25;;;;;;;61.33;25.10;;;1.40;99.90;;;;;;5020177;28;20229;-75
2022/01/19 00:04:15;;;;;;;54.23;22.90;;;1.40;99.90;;;;;;5021496;28;20225;-73
2022/01/19 00:07:05;;;;;;;55.27;24.03;;;1.60;99.90;;;;;;5024554;28;20688;-74
2022/01/19 00:09:53;;;;;;;50.30;23.23;;;1.40;99.90;;;;;;5034003;28;20224;-72
2022/01/19 00:12:43;;;;;;;54.47;23.37;;;1.20;99.90;;;;;;5036462;28;20743;-74
2022/01/19 00:15:32;;;;;;;51.00;22.00;;;1.30;99.90;;;;;;4999900;28;20233;-74
2022/01/19 00:18:23;;;;;;;47.40;22.10;;;1.40;99.90;;;;;;5026510;28;20269;-75
2022/01/19 00:21:12;;;;;;;48.57;22.23;;;1.40;99.90;;;;;;5037231;28;20359;-75
2022/01/19 00:24:01;;;;;;;47.03;21.93;;;1.30;99.90;;;;;;5037400;28;20236;-75
2022/01/19 00:26:55;;;;;;;48.20;22.17;;;1.50;99.90;;;;;;5026371;28;20213;-72
2022/01/19 00:29:44;;;;;;;50.40;22.47;;;1.50;99.90;;;;;;5011177;28;20257;-75
2022/01/19 00:32:33;;;;;;;47.70;22.67;;;1.60;99.90;;;;;;5021049;28;20228;-75
2022/01/19 00:35:22;;;;;;;46.80;22.07;;;1.40;99.90;;;;;;5005475;28;20372;-73
2022/01/19 00:38:11;;;;;;;53.97;22.50;;;1.50;99.90;;;;;;5027506;28;20256;-72
2022/01/19 00:41:02;;;;;;;55.73;22.90;;;1.20;99.90;;;;;;5037684;28;20233;-76
2022/01/19 00:43:51;;;;;;;50.97;23.33;;;1.40;99.90;;;;;;5037159;28;20239;-75
2022/01/19 00:46:39;;;;;;;55.43;23.73;;;1.40;99.90;;;;;;5024551;28;20212;-74
2022/01/19 00:49:28;;;;;;;50.13;23.73;;;1.50;99.90;;;;;;5028085;28;20216;-72
2022/01/19 00:52:17;;;;;;;54.70;22.30;;;1.50;99.90;;;;;;5037658;28;20225;-72
2022/01/19 00:55:08;;;;;;;49.53;20.77;;;1.60;99.90;;;;;;5028141;28;20715;-73
2022/01/19 00:57:58;;;;;;;59.87;24.23;;;1.30;99.90;;;;;;5026483;28;20224;-73
2022/01/19 01:00:46;;;;;;;54.27;22.80;;;1.40;99.90;;;;;;5041976;28;20228;-75
2022/01/19 01:03:36;;;;;;;51.27;22.67;;;1.40;99.90;;;;;;5020096;28;20267;-73
2022/01/19 01:06:25;;;;;;;54.20;22.73;;;1.40;99.90;;;;;;5023593;28;20828;-75
2022/01/19 01:09:14;;;;;;;52.63;21.90;;;1.40;99.90;;;;;;5022782;28;20228;-73
2022/01/19 01:12:10;;;;;;;49.13;21.53;;;1.40;99.90;;;;;;5024479;28;20783;-73
2022/01/19 01:18:20;;;;;;;42.90;18.57;;;1.40;99.90;;;;;;5025994;28;20212;-72
2022/01/19 01:21:13;;;;;;;50.50;24.53;;;1.50;99.90;;;;;;5035072;28;20220;-73
2022/01/19 01:24:02;;;;;;;40.93;17.53;;;1.60;99.90;;;;;;5025430;28;21014;-73
2022/01/19 01:26:51;;;;;;;34.97;16.30;;;1.60;99.90;;;;;;5032708;28;20866;-72
2022/01/19 01:29:40;;;;;;;35.50;16.40;;;1.60;99.90;;;;;;5028213;28;20267;-72
2022/01/19 01:32:30;;;;;;;36.73;16.13;;;1.60;99.90;;;;;;5021986;28;20824;-73
2022/01/19 01:35:19;;;;;;;35.13;16.07;;;1.60;99.90;;;;;;5026547;28;20276;-71
2022/01/19 01:38:08;;;;;;;36.47;16.67;;;1.70;99.90;;;;;;5037890;28;20221;-71
2022/01/19 01:41:05;;;;;;;39.33;16.80;;;1.70;99.90;;;;;;5033414;28;20312;-77
2022/01/19 01:43:54;;;;;;;40.53;16.37;;;1.80;99.90;;;;;;5052641;28;20247;-75
2022/01/19 01:46:49;;;;;;;46.40;17.57;;;1.90;99.90;;;;;;5042318;28;20318;-74
2022/01/19 01:53:16;;;;;;;49.47;18.27;;;1.70;99.90;;;;;;5052708;28;20797;-75
2022/01/19 01:56:16;;;;;;;60.33;21.70;;;1.80;99.90;;;;;;4988643;28;20241;-74
2022/01/19 01:59:06;;;;;;;46.23;20.13;;;2.00;99.90;;;;;;5074221;28;20238;-73
2022/01/19 02:01:55;;;;;;;43.40;20.40;;;1.90;99.90;;;;;;5062696;28;20225;-75
2022/01/19 02:04:46;;;;;;;42.53;19.60;;;2.00;99.90;;;;;;5049152;28;20454;-74
2022/01/19 02:07:43;;;;;;;48.73;21.33;;;1.90;99.90;;;;;;5048348;28;20216;-75
2022/01/19 02:10:41;;;;;;;47.97;20.10;;;1.90;99.90;;;;;;5046311;28;20224;-75
2022/01/19 02:16:48;;;;;;;51.90;20.23;;;1.90;99.90;;;;;;5047201;28;20215;-75
2022/01/19 02:22:44;;;;;;;46.90;18.93;;;1.80;99.90;;;;;;5043164;28;20814;-75
2022/01/19 02:25:39;;;;;;;42.07;18.27;;;2.00;99.90;;;;;;5044529;28;20442;-74
2022/01/19 02:36:30;;;;;;;45.23;19.47;;;2.10;99.90;;;;;;5046092;28;20273;-75
2022/01/19 02:41:13;;;;;;;46.83;17.23;;;2.20;99.90;;;;;;5044747;28;20664;-75
2022/01/19 02:44:01;;;;;;;46.20;18.00;;;2.20;99.90;;;;;;5047546;28;20232;-74
2022/01/19 02:49:09;;;;;;;48.40;16.13;;;2.10;99.90;;;;;;5046822;28;20208;-74
2022/01/19 02:50:02;;;;;;;37.57;14.90;;;2.20;99.90;;;;;;5043840;28;20224;-75
2022/01/19 02:52:50;;;;;;;41.20;15.97;;;2.10;99.90;;;;;;5059077;28;21154;-74
2022/01/19 02:55:40;;;;;;;42.13;16.47;;;2.10;99.90;;;;;;5046493;28;20788;-72
2022/01/19 02:58:29;;;;;;;32.47;15.17;;;2.00;99.90;;;;;;5060032;28;20220;-72
2022/01/19 03:10:50;;;;;;;44.20;16.97;;;2.10;99.90;;;;;;5044256;28;20220;-72
2022/01/19 03:13:39;;;;;;;39.60;16.13;;;2.10;99.90;;;;;;5049198;28;20345;-78
2022/01/19 03:16:27;;;;;;;43.03;16.57;;;2.00;99.90;;;;;;5042988;28;20354;-73
2022/01/19 03:19:17;;;;;;;38.80;16.73;;;1.80;99.90;;;;;;5056561;28;21042;-73
2022/01/19 03:22:05;;;;;;;39.97;14.73;;;2.00;99.90;;;;;;5045620;28;20242;-73
2022/01/19 03:24:54;;;;;;;40.17;15.10;;;2.00;99.90;;;;;;5057650;28;20247;-73
2022/01/19 03:27:48;;;;;;;31.53;13.00;;;2.00;99.90;;;;;;5047192;28;20217;-74
2022/01/19 03:30:39;;;;;;;34.67;14.10;;;1.90;99.90;;;;;;5043409;28;20307;-72
2022/01/19 03:33:29;;;;;;;41.40;14.47;;;1.90;99.90;;;;;;5056960;28;20258;-74
2022/01/19 03:36:18;;;;;;;27.67;12.17;;;1.90;99.90;;;;;;5047792;28;20224;-73
2022/01/19 03:39:07;;;;;;;37.80;14.13;;;1.80;99.90;;;;;;5048080;28;20220;-73
2022/01/19 03:41:56;;;;;;;36.00;12.47;;;1.80;99.90;;;;;;5044428;28;20220;-74
2022/01/19 03:44:46;;;;;;;38.50;15.40;;;1.80;99.90;;;;;;5041522;28;20216;-75
2022/01/19 03:47:40;;;;;;;37.60;15.07;;;1.80;99.90;;;;;;5042296;28;20231;-74
2022/01/19 03:50:30;;;;;;;40.10;14.70;;;1.90;99.90;;;;;;5043273;28;20231;-74
2022/01/19 03:53:19;;;;;;;33.33;13.00;;;2.00;99.90;;;;;;5045172;28;20244;-75
2022/01/19 03:56:08;;;;;;;42.83;15.17;;;1.90;99.90;;;;;;5039461;28;20236;-75
2022/01/19 03:58:57;;;;;;;38.27;15.00;;;1.90;99.90;;;;;;5041295;28;20361;-74
2022/01/19 04:01:47;;;;;;;36.33;15.33;;;1.90;99.90;;;;;;5029174;28;20225;-75
2022/01/19 04:04:42;;;;;;;38.30;13.70;;;2.00;99.90;;;;;;5042608;28;20686;-74
2022/01/19 04:07:51;;;;;;;40.80;14.53;;;1.90;99.90;;;;;;5041136;28;20305;-74
2022/01/19 04:10:40;;;;;;;37.97;14.70;;;2.00;99.90;;;;;;5043460;28;20326;-74
2022/01/19 04:13:44;;;;;;;39.20;14.63;;;1.90;99.90;;;;;;5042191;28;20605;-74
2022/01/19 04:16:33;;;;;;;36.93;15.60;;;2.00;99.90;;;;;;5039365;28;20226;-74
2022/01/19 04:19:30;;;;;;;36.27;14.40;;;2.00;99.90;;;;;;5042765;28;20977;-75
2022/01/19 04:22:26;;;;;;;26.93;13.20;;;2.10;99.90;;;;;;5036468;28;20220;-74
2022/01/19 04:25:23;;;;;;;30.87;14.73;;;2.10;99.90;;;;;;5050467;28;20292;-74
2022/01/19 04:28:11;;;;;;;29.93;13.33;;;2.10;99.90;;;;;;5036660;28;20212;-73
2022/01/19 04:31:04;;;;;;;35.90;14.27;;;2.10;99.90;;;;;;5041158;28;20242;-73
2022/01/19 04:33:52;;;;;;;32.83;12.50;;;2.00;99.90;;;;;;5042672;28;20220;-73
2022/01/19 04:37:10;;;;;;;31.40;13.40;;;2.10;99.90;;;;;;5055360;28;20301;-73
2022/01/19 04:46:48;;;;;;;32.07;14.30;;;2.20;99.90;;;;;;5025061;28;20858;-72
2022/01/19 05:02:24;;;;;;;33.90;14.27;;;2.20;99.90;;;;;;5049248;28;20259;-72
2022/01/19 05:05:27;;;;;;;33.80;14.30;;;2.20;99.90;;;;;;5030958;28;20228;-73
2022/01/19 05:08:34;;;;;;;30.93;14.50;;;2.30;99.90;;;;;;5032909;28;20240;-74
2022/01/19 05:14:32;;;;;;;37.43;14.73;;;2.20;99.90;;;;;;5033872;28;20224;-72
2022/01/19 05:17:21;;;;;;;35.07;14.90;;;2.20;99.90;;;;;;5037584;28;20352;-73
2022/01/19 05:20:12;;;;;;;32.20;14.80;;;2.30;99.90;;;;;;5038600;28;20582;-72
2022/01/19 05:23:01;;;;;;;33.90;15.43;;;2.40;99.90;;;;;;5053083;28;20217;-73
2022/01/19 05:25:52;;;;;;;39.93;15.60;;;2.30;99.90;;;;;;5044031;28;20223;-75
2022/01/19 05:28:51;;;;;;;40.83;16.37;;;2.40;99.90;;;;;;5066858;28;20219;-74
2022/01/19 05:31:40;;;;;;;34.43;15.27;;;2.20;99.90;;;;;;5045765;28;20228;-74
2022/01/19 05:34:30;;;;;;;29.53;15.43;;;2.30;99.90;;;;;;5037301;28;20733;-73
2022/01/19 05:37:36;;;;;;;35.57;15.63;;;2.30;99.90;;;;;;5045263;28;20224;-74
2022/01/19 05:40:39;;;;;;;32.20;15.50;;;2.40;99.90;;;;;;5043094;28;20224;-74
2022/01/19 05:43:28;;;;;;;27.93;15.53;;;2.40;99.90;;;;;;5058705;28;20244;-74
2022/01/19 05:46:17;;;;;;;35.13;16.97;;;2.50;99.90;;;;;;5045814;28;21680;-74
2022/01/19 05:49:07;;;;;;;35.50;17.03;;;2.50;99.90;;;;;;5047967;28;20227;-74
2022/01/19 05:51:55;;;;;;;39.07;16.37;;;2.60;99.90;;;;;;5045426;28;20354;-74
2022/01/19 05:54:45;;;;;;;39.10;17.10;;;2.70;99.90;;;;;;5041092;28;20311;-73
2022/01/19 05:57:33;;;;;;;40.87;17.67;;;2.60;99.90;;;;;;5030108;28;20212;-75
2022/01/19 06:00:24;;;;;;;37.53;17.00;;;2.70;99.90;;;;;;5037257;28;20232;-75
2022/01/19 06:03:13;;;;;;;39.03;16.87;;;2.70;99.90;;;;;;5058645;28;20217;-74
2022/01/19 06:06:31;;;;;;;32.30;16.30;;;2.70;99.90;;;;;;5062227;28;20282;-74
2022/01/19 06:09:35;;;;;;;37.93;16.00;;;2.60;99.90;;;;;;5051727;28;20225;-72
2022/01/19 06:12:25;;;;;;;31.70;15.23;;;2.80;99.90;;;;;;5033972;28;20227;-75
2022/01/19 06:15:14;;;;;;;28.10;16.53;;;2.80;99.90;;;;;;5029848;28;20216;-74
2022/01/19 06:18:04;;;;;;;39.53;16.67;;;2.60;99.90;;;;;;5055450;28;20223;-74
2022/01/19 06:20:53;;;;;;;32.87;16.73;;;2.70;99.90;;;;;;5058715;28;20220;-73
2022/01/19 06:23:47;;;;;;;33.40;15.90;;;2.70;99.90;;;;;;5049989;28;20735;-74
2022/01/19 06:26:39;;;;;;;35.47;16.10;;;2.80;99.90;;;;;;5064260;28;20224;-71
2022/01/19 06:29:28;;;;;;;35.07;16.00;;;2.90;99.90;;;;;;5053646;28;20235;-74
2022/01/19 06:32:17;;;;;;;32.13;15.03;;;2.80;99.90;;;;;;5051035;28;20225;-73
2022/01/19 06:35:08;;;;;;;27.40;13.90;;;2.80;99.90;;;;;;5048312;28;20216;-72
2022/01/19 06:38:09;;;;;;;33.53;14.83;;;2.90;99.90;;;;;;5052484;28;20846;-73
2022/01/19 06:41:18;;;;;;;39.33;14.83;;;2.90;99.90;;;;;;5056712;28;20231;-73
2022/01/19 06:44:07;;;;;;;36.23;15.27;;;2.90;99.90;;;;;;5059876;28;20232;-74
2022/01/19 06:46:55;;;;;;;33.13;14.13;;;3.00;99.90;;;;;;5066480;28;20242;-75
2022/01/19 06:49:44;;;;;;;34.40;14.43;;;3.00;99.90;;;;;;5032063;28;20233;-75
2022/01/19 06:52:37;;;;;;;24.87;13.50;;;3.00;99.90;;;;;;5033851;28;20236;-73
2022/01/19 06:55:26;;;;;;;30.50;13.97;;;3.00;99.90;;;;;;5043063;28;20224;-74
2022/01/19 06:58:17;;;;;;;33.93;15.57;;;3.00;99.90;;;;;;5039194;28;20319;-75
2022/01/19 07:01:05;;;;;;;30.57;13.13;;;3.00;99.90;;;;;;5069003;28;20605;-73
2022/01/19 07:04:15;;;;;;;35.07;14.80;;;3.00;99.90;;;;;;5042433;28;20239;-71
2022/01/19 07:07:04;;;;;;;27.00;12.53;;;3.00;99.90;;;;;;5051712;28;20212;-73
2022/01/19 07:10:09;;;;;;;32.57;14.13;;;3.10;99.90;;;;;;5059648;28;20697;-74
2022/01/19 07:12:59;;;;;;;31.20;14.03;;;3.10;99.90;;;;;;5056736;28;20231;-74
2022/01/19 07:15:48;;;;;;;34.20;13.77;;;3.20;99.90;;;;;;5046357;28;20229;-75
2022/01/19 07:18:36;;;;;;;26.07;13.37;;;3.10;99.90;;;;;;5035793;28;20236;-76
2022/01/19 07:21:25;;;;;;;29.70;13.90;;;3.10;99.90;;;;;;5042289;28;20636;-75
2022/01/19 07:24:17;;;;;;;28.73;13.43;;;3.10;99.90;;;;;;5026162;28;20718;-75
2022/01/19 07:27:07;;;;;;;29.40;13.97;;;3.10;99.90;;;;;;5038304;28;20311;-74
2022/01/19 07:29:56;;;;;;;28.10;13.60;;;3.20;99.90;;;;;;5028307;28;20217;-75
2022/01/19 07:32:48;;;;;;;25.20;13.07;;;3.30;99.90;;;;;;5045476;28;20395;-74
2022/01/19 07:35:37;;;;;;;28.67;12.17;;;3.10;99.90;;;;;;5058002;28;20290;-74
2022/01/19 07:38:26;;;;;;;23.27;12.77;;;3.10;99.90;;;;;;5060292;28;20324;-74
2022/01/19 07:41:15;;;;;;;30.00;12.33;;;3.10;99.90;;;;;;5038220;28;20231;-74
2022/01/19 07:44:10;;;;;;;30.27;13.53;;;3.20;99.90;;;;;;5044216;28;20236;-75
2022/01/19 07:47:27;;;;;;;27.67;13.77;;;3.20;99.90;;;;;;5044609;28;20220;-75
2022/01/19 07:50:35;;;;;;;28.93;13.73;;;3.30;99.90;;;;;;5061398;28;20569;-73
2022/01/19 07:53:47;;;;;;;31.53;12.87;;;3.40;99.90;;;;;;5060540;28;20227;-75
2022/01/19 07:56:51;;;;;;;27.53;13.50;;;3.30;99.90;;;;;;5037017;28;20241;-71
2022/01/19 08:00:01;;;;;;;26.97;12.67;;;3.50;99.90;;;;;;5035687;28;20226;-75
2022/01/19 08:03:03;;;;;;;32.80;13.10;;;3.40;99.90;;;;;;5061667;28;20521;-77
2022/01/19 08:06:13;;;;;;;27.57;13.97;;;3.40;99.90;;;;;;5049267;28;20227;-76
2022/01/19 08:09:04;;;;;;;31.27;14.67;;;3.30;99.90;;;;;;5043366;28;20445;-77
2022/01/19 08:11:53;;;;;;;30.53;14.10;;;3.40;99.90;;;;;;5049592;28;20224;-73
2022/01/19 08:14:46;;;;;;;27.73;14.00;;;3.50;99.90;;;;;;5039952;28;20235;-75
2022/01/19 08:17:40;;;;;;;31.00;14.20;;;3.30;99.90;;;;;;5055340;28;20622;-73
2022/01/19 08:20:29;;;;;;;30.73;13.80;;;3.40;99.90;;;;;;5036944;28;20253;-74
2022/01/19 08:23:18;;;;;;;30.60;15.23;;;3.40;99.90;;;;;;5017776;28;20644;-74
2022/01/19 08:26:15;;;;;;;29.53;14.40;;;3.40;99.90;;;;;;5022713;28;20220;-73
2022/01/19 08:29:06;;;;;;;28.77;14.10;;;3.50;99.90;;;;;;5028662;28;20217;-75
2022/01/19 08:31:59;;;;;;;26.97;14.20;;;3.40;99.90;;;;;;5026249;28;20241;-74
2022/01/19 08:35:33;;;;;;;31.37;14.67;;;3.50;99.90;;;;;;5044260;28;20255;-74
2022/01/19 08:38:42;;;;;;;27.03;15.07;;;3.50;99.90;;;;;;5063341;28;20944;-74
2022/01/19 08:41:36;;;;;;;30.53;14.40;;;3.50;99.90;;;;;;5042390;28;20575;-75
2022/01/19 08:44:26;;;;;;;29.20;14.50;;;3.50;99.90;;;;;;5025846;28;20743;-73
2022/01/19 08:47:26;;;;;;;33.10;15.53;;;3.60;99.90;;;;;;5024630;28;20233;-74
2022/01/19 08:50:30;;;;;;;30.80;16.17;;;3.60;99.90;;;;;;5023931;28;20285;-74
2022/01/19 08:53:30;;;;;;;30.70;16.03;;;3.60;99.90;;;;;;5036784;28;20407;-74
2022/01/19 08:56:47;;;;;;;31.17;14.63;;;3.60;99.90;;;;;;5052063;28;20371;-72
2022/01/19 08:59:36;;;;;;;30.90;15.50;;;3.60;99.90;;;;;;5058736;28;20665;-73
2022/01/19 09:02:25;;;;;;;31.70;15.60;;;3.50;99.90;;;;;;5061925;28;20228;-72
2022/01/19 09:05:13;;;;;;;31.27;16.00;;;3.60;99.90;;;;;;5053343;28;20213;-74
2022/01/19 09:08:02;;;;;;;39.97;16.03;;;3.50;99.90;;;;;;5052885;28;20874;-73
2022/01/19 09:10:57;;;;;;;32.67;16.93;;;3.60;99.90;;;;;;5048512;28;20304;-73
2022/01/19 09:13:48;;;;;;;35.03;15.37;;;3.70;99.90;;;;;;5049380;28;20306;-74
2022/01/19 09:16:37;;;;;;;35.53;16.33;;;3.50;99.90;;;;;;5049187;28;20328;-75
2022/01/19 09:19:26;;;;;;;29.60;16.40;;;3.60;99.90;;;;;;5050427;28;20565;-75
2022/01/19 09:22:14;;;;;;;31.47;16.10;;;3.70;99.90;;;;;;5065418;28;20219;-76
2022/01/19 09:25:05;;;;;;;35.20;16.17;;;3.70;99.90;;;;;;5065138;28;20216;-74
2022/01/19 09:27:55;;;;;;;41.53;17.63;;;3.80;99.90;;;;;;5062814;28;20321;-72
2022/01/19 09:30:45;;;;;;;38.83;17.07;;;3.90;99.90;;;;;;5064672;28;20217;-72
2022/01/19 09:33:34;;;;;;;34.40;17.37;;;3.70;99.90;;;;;;5062515;28;20291;-72
2022/01/19 09:36:32;;;;;;;32.43;17.33;;;3.90;99.90;;;;;;5045519;28;20714;-74
2022/01/19 09:39:23;;;;;;;32.93;17.10;;;3.90;99.90;;;;;;5063244;28;20229;-77
2022/01/19 09:42:13;;;;;;;36.20;17.43;;;3.90;99.90;;;;;;5061446;28;20232;-75
2022/01/19 09:45:04;;;;;;;33.80;16.37;;;4.00;99.90;;;;;;5044177;28;20239;-77
2022/01/19 09:47:53;;;;;;;37.83;16.73;;;3.90;99.90;;;;;;5051805;28;20576;-76
2022/01/19 09:50:41;;;;;;;32.60;16.97;;;3.80;99.90;;;;;;5057615;28;20227;-76
2022/01/19 09:53:30;;;;;;;34.20;16.80;;;3.90;99.90;;;;;;5065137;28;20299;-76
2022/01/19 09:56:20;;;;;;;35.53;17.60;;;3.90;99.90;;;;;;5052672;28;20220;-76
2022/01/19 09:59:09;;;;;;;37.40;17.77;;;3.90;99.90;;;;;;5046839;28;20812;-72
2022/01/19 10:02:02;;;;;;;35.17;17.73;;;4.00;99.90;;;;;;5046315;28;20223;-74
2022/01/19 10:04:51;;;;;;;35.63;17.30;;;3.90;99.90;;;;;;5058490;28;20218;-71
2022/01/19 10:07:40;;;;;;;34.57;18.07;;;4.00;99.90;;;;;;5042410;28;20235;-69
2022/01/19 10:10:28;;;;;;;36.73;17.23;;;4.00;99.90;;;;;;5060564;28;20235;-71
2022/01/19 10:19:34;;;;;;;34.87;17.47;;;3.90;99.90;;;;;;5046610;28;20216;-72
2022/01/19 10:22:25;;;;;;;35.63;18.30;;;3.90;99.90;;;;;;5050978;28;20322;-70
2022/01/19 10:25:13;;;;;;;37.10;18.63;;;4.00;99.90;;;;;;5052464;28;20233;-73
2022/01/19 10:28:02;;;;;;;31.50;17.57;;;4.00;99.90;;;;;;5061066;28;20672;-73
2022/01/19 10:30:52;;;;;;;35.57;18.73;;;3.90;99.90;;;;;;5048752;28;20236;-73
2022/01/19 10:33:41;;;;;;;40.67;19.40;;;4.00;99.90;;;;;;5045999;28;20225;-74
2022/01/19 10:36:46;;;;;;;33.57;17.90;;;3.90;99.90;;;;;;5057867;28;20600;-74
2022/01/19 10:39:45;;;;;;;42.30;20.17;;;3.90;99.90;;;;;;5045540;28;20234;-72
2022/01/19 10:42:34;;;;;;;38.73;20.03;;;3.90;99.90;;;;;;5042836;28;20224;-72
2022/01/19 10:45:23;;;;;;;41.50;19.27;;;3.90;99.90;;;;;;5043948;28;20277;-71
2022/01/19 10:48:12;;;;;;;37.73;18.60;;;3.90;99.90;;;;;;5043744;28;20603;-72
2022/01/19 10:51:13;;;;;;;38.07;20.20;;;3.90;99.90;;;;;;5059731;28;21939;-73
2022/01/19 10:54:12;;;;;;;38.47;20.07;;;3.90;99.90;;;;;;5043853;28;20835;-70
2022/01/19 10:57:16;;;;;;;33.33;18.57;;;3.90;99.90;;;;;;5039363;28;21546;-71
2022/01/19 11:00:24;;;;;;;40.10;19.60;;;3.90;99.90;;;;;;5042635;28;20232;-70
2022/01/19 11:03:17;;;;;;;37.33;19.27;;;3.90;99.90;;;;;;5038252;28;20222;-70
2022/01/19 11:06:06;;;;;;;33.83;18.53;;;3.80;99.90;;;;;;5059231;28;20275;-73
2022/01/19 11:08:55;;;;;;;35.97;19.20;;;3.70;99.90;;;;;;5041878;28;20224;-69
2022/01/19 11:11:45;;;;;;;37.20;20.60;;;3.80;99.90;;;;;;5045158;28;20232;-71
2022/01/19 11:14:36;;;;;;;37.07;19.87;;;3.80;99.90;;;;;;5037436;28;21029;-70
2022/01/19 11:17:45;;;;;;;36.57;20.27;;;3.90;99.90;;;;;;5056858;28;20220;-69
2022/01/19 11:20:43;;;;;;;40.30;19.33;;;4.00;99.90;;;;;;5042222;28;20227;-73
2022/01/19 11:23:39;;;;;;;29.03;19.23;;;4.00;99.90;;;;;;5047418;28;20213;-71
2022/01/19 11:26:32;;;;;;;35.47;19.03;;;3.90;99.90;;;;;;5058634;28;20560;-72
2022/01/19 11:29:25;;;;;;;36.87;18.13;;;3.90;99.90;;;;;;5043199;28;20354;-73
2022/01/19 11:32:17;;;;;;;30.63;18.20;;;3.80;99.90;;;;;;5046829;28;20237;-73
2022/01/19 11:35:06;;;;;;;32.07;17.60;;;3.90;99.90;;;;;;5056207;28;20678;-74
2022/01/19 11:37:55;;;;;;;31.47;17.57;;;3.80;99.90;;;;;;5030125;28;20237;-73
2022/01/19 11:40:44;;;;;;;31.80;18.47;;;3.90;99.90;;;;;;5046927;28;20293;-72
2022/01/19 11:43:33;;;;;;;36.90;18.00;;;3.90;99.90;;;;;;5056055;28;20281;-74
2022/01/19 11:46:32;;;;;;;33.20;18.40;;;3.90;99.90;;;;;;5060169;28;20309;-73
2022/01/19 11:49:45;;;;;;;34.33;18.23;;;4.10;99.90;;;;;;5045730;28;20737;-73
2022/01/19 11:53:09;;;;;;;38.87;19.93;;;4.00;99.90;;;;;;5059912;28;20722;-72
2022/01/19 11:56:04;;;;;;;33.87;18.40;;;4.10;99.90;;;;;;4990596;28;20332;-73
2022/01/19 11:59:04;;;;;;;35.30;19.20;;;3.90;99.90;;;;;;5069961;28;20788;-72
2022/01/19 12:02:14;;;;;;;39.37;19.30;;;3.90;99.90;;;;;;5057299;28;20370;-74
2022/01/19 12:05:18;;;;;;;37.17;21.33;;;3.80;99.90;;;;;;5063475;28;20227;-74
2022/01/19 12:08:31;;;;;;;38.20;21.47;;;3.80;99.90;;;;;;5061787;28;20249;-72
2022/01/19 12:11:23;;;;;;;44.43;22.70;;;3.90;99.90;;;;;;5076485;28;20221;-73
2022/01/19 12:14:17;;;;;;;41.47;23.40;;;4.00;99.90;;;;;;5071996;28;20230;-72
2022/01/19 12:17:08;;;;;;;42.37;23.67;;;3.90;99.90;;;;;;5046463;28;20225;-71
2022/01/19 12:20:01;;;;;;;44.60;24.20;;;4.00;99.90;;;;;;5068916;28;20221;-73
2022/01/19 12:22:51;;;;;;;41.80;22.93;;;4.10;99.90;;;;;;5068741;28;20215;-73
2022/01/19 12:25:53;;;;;;;43.37;24.73;;;3.90;99.90;;;;;;5061229;28;20230;-71
2022/01/19 12:28:45;;;;;;;46.17;24.33;;;4.00;99.90;;;;;;5048225;28;20226;-73
2022/01/19 12:31:38;;;;;;;46.47;25.07;;;4.00;99.90;;;;;;5044215;28;20229;-72
2022/01/19 12:34:27;;;;;;;46.03;24.63;;;4.00;99.90;;;;;;5068492;28;21798;-74
2022/01/19 12:37:37;;;;;;;50.63;25.23;;;4.10;99.90;;;;;;5059433;28;20229;-72
2022/01/19 12:40:46;;;;;;;41.97;24.17;;;4.10;99.90;;;;;;5072704;28;20660;-72
2022/01/19 12:43:38;;;;;;;44.33;24.13;;;4.00;99.90;;;;;;5048896;28;20709;-72
2022/01/19 12:46:38;;;;;;;45.80;24.30;;;3.90;99.90;;;;;;5064723;28;20651;-73
2022/01/19 12:49:28;;;;;;;40.47;22.73;;;3.90;99.90;;;;;;5078329;28;20239;-72
2022/01/19 12:52:17;;;;;;;40.33;21.10;;;3.90;99.90;;;;;;5059457;28;20225;-72
2022/01/19 12:55:13;;;;;;;43.10;22.63;;;3.70;99.90;;;;;;5052643;28;20301;-73
2022/01/19 12:58:12;;;;;;;42.13;23.20;;;3.90;99.90;;;;;;5060710;28;20609;-73
2022/01/19 13:01:03;;;;;;;43.33;23.57;;;3.80;99.90;;;;;;5075423;28;20253;-74
2022/01/19 13:03:52;;;;;;;49.17;23.90;;;3.80;99.90;;;;;;5052471;28;20290;-74
2022/01/19 13:06:43;;;;;;;42.80;23.83;;;4.00;99.90;;;;;;5047863;28;20217;-74
2022/01/19 13:09:37;;;;;;;45.07;24.77;;;4.00;99.90;;;;;;5075668;28;20690;-74
2022/01/19 13:12:34;;;;;;;38.63;23.47;;;3.90;99.90;;;;;;5061806;28;21503;-73
2022/01/19 13:15:25;;;;;;;43.73;23.67;;;3.90;99.90;;;;;;5053752;28;20222;-72
2022/01/19 13:18:17;;;;;;;38.60;22.73;;;3.70;99.90;;;;;;5059439;28;20220;-71
2022/01/19 13:21:09;;;;;;;43.87;22.37;;;3.90;99.90;;;;;;5059282;28;20228;-69
2022/01/19 13:24:00;;;;;;;40.70;23.73;;;3.70;99.90;;;;;;5068798;28;20226;-72
2022/01/19 13:26:52;;;;;;;43.83;24.90;;;3.70;99.90;;;;;;5072238;28;20217;-76
2022/01/19 13:29:47;;;;;;;45.80;25.13;;;3.70;99.90;;;;;;5053185;28;20698;-76
2022/01/19 13:32:38;;;;;;;43.43;24.50;;;3.90;99.90;;;;;;5062925;28;20229;-74
2022/01/19 13:35:28;;;;;;;39.87;23.90;;;3.80;99.90;;;;;;5059828;28;20289;-74
2022/01/19 13:38:17;;;;;;;44.07;24.63;;;3.90;99.90;;;;;;5059734;28;20226;-74
2022/01/19 13:41:08;;;;;;;43.97;23.33;;;3.80;99.90;;;;;;5054906;28;20240;-73
2022/01/19 13:44:04;;;;;;;44.83;25.57;;;3.90;99.90;;;;;;5055068;28;20229;-75
2022/01/19 13:47:04;;;;;;;40.97;22.97;;;3.80;99.90;;;;;;5080939;28;20305;-75
2022/01/19 13:49:55;;;;;;;42.03;23.33;;;3.90;99.90;;;;;;5065060;28;20644;-75
2022/01/19 13:52:44;;;;;;;44.80;24.87;;;3.70;99.90;;;;;;5065224;28;20224;-74
2022/01/19 13:55:35;;;;;;;43.77;24.30;;;3.90;99.90;;;;;;5064908;28;20224;-74
2022/01/19 13:58:32;;;;;;;45.33;24.83;;;3.80;99.90;;;;;;5080075;28;21352;-71
2022/01/19 14:01:33;;;;;;;45.23;26.00;;;3.90;99.90;;;;;;5064603;28;20364;-76
2022/01/19 14:04:23;;;;;;;47.30;25.53;;;3.90;99.90;;;;;;5063660;28;20802;-71
2022/01/19 14:07:16;;;;;;;47.57;26.83;;;3.80;99.90;;;;;;5055118;28;20213;-73
2022/01/19 14:10:09;;;;;;;48.87;28.40;;;3.90;99.90;;;;;;5064736;28;20235;-72
2022/01/19 14:12:58;;;;;;;47.00;23.93;;;4.00;99.90;;;;;;5075658;28;20690;-72
2022/01/19 14:15:46;;;;;;;53.00;26.60;;;4.00;99.90;;;;;;5076333;28;20569;-76
2022/01/19 14:18:35;;;;;;;46.30;27.10;;;4.10;99.90;;;;;;5068665;28;20303;-75
2022/01/19 14:21:24;;;;;;;49.17;27.83;;;3.90;99.90;;;;;;5068227;28;20677;-75
2022/01/19 14:24:14;;;;;;;47.07;25.73;;;4.00;99.90;;;;;;5066218;28;20275;-76
2022/01/19 14:27:03;;;;;;;46.23;27.67;;;4.10;99.90;;;;;;5071705;28;20255;-74
2022/01/19 14:29:57;;;;;;;47.33;28.03;;;3.80;99.90;;;;;;5061916;28;20228;-76
2022/01/19 14:32:48;;;;;;;46.53;24.93;;;4.00;99.90;;;;;;5047464;28;20304;-76
2022/01/19 14:35:39;;;;;;;48.70;28.97;;;3.90;99.90;;;;;;5048235;28;20225;-75
2022/01/19 14:38:32;;;;;;;44.43;27.80;;;4.00;99.90;;;;;;5047199;28;20338;-75
2022/01/19 14:41:28;;;;;;;50.47;30.37;;;3.90;99.90;;;;;;5065250;28;20278;-75
2022/01/19 14:44:29;;;;;;;51.77;28.10;;;3.90;99.90;;;;;;5057847;28;20589;-75
2022/01/19 14:47:38;;;;;;;50.20;28.50;;;3.90;99.90;;;;;;5053191;28;20235;-77
2022/01/19 14:50:32;;;;;;;46.10;24.43;;;3.90;99.90;;;;;;5053556;28;20252;-74
2022/01/19 14:53:23;;;;;;;52.17;30.03;;;3.90;99.90;;;;;;5079016;28;20274;-74
2022/01/19 14:56:12;;;;;;;55.07;30.50;;;3.90;99.90;;;;;;5079668;28;20221;-75
2022/01/19 14:59:04;;;;;;;54.03;29.87;;;3.90;99.90;;;;;;5060784;28;20362;-74
2022/01/19 15:01:56;;;;;;;52.97;30.80;;;3.90;99.90;;;;;;5072681;28;20351;-73
2022/01/19 15:04:45;;;;;;;54.57;31.27;;;3.70;99.90;;;;;;5061890;28;20208;-73
2022/01/19 15:07:36;;;;;;;61.57;31.57;;;3.70;99.90;;;;;;5050660;28;20225;-76
2022/01/19 15:10:26;;;;;;;57.10;30.63;;;3.70;99.90;;;;;;5063714;28;20221;-73
2022/01/19 15:13:15;;;;;;;55.13;31.43;;;3.80;99.90;;;;;;5053458;28;20216;-72
2022/01/19 15:16:06;;;;;;;61.43;33.87;;;3.90;99.90;;;;;;5075195;28;20237;-74
2022/01/19 15:18:55;;;;;;;58.67;33.60;;;3.80;99.90;;;;;;5061824;28;20232;-73
2022/01/19 15:21:44;;;;;;;55.40;31.93;;;3.90;99.90;;;;;;5061065;28;21091;-74
2022/01/19 15:24:33;;;;;;;62.27;31.70;;;4.00;99.90;;;;;;5073940;28;20251;-74
2022/01/19 15:27:23;;;;;;;58.20;31.80;;;4.10;99.90;;;;;;5053624;28;20255;-74
2022/01/19 15:30:12;;;;;;;53.23;29.23;;;4.00;99.90;;;;;;5058363;28;20248;-74
2022/01/19 15:33:03;;;;;;;56.90;31.57;;;4.00;99.90;;;;;;5067522;28;20229;-74
2022/01/19 15:35:52;;;;;;;53.67;25.27;;;4.00;99.90;;;;;;5051541;28;20229;-73
2022/01/19 15:38:43;;;;;;;53.13;23.70;;;3.90;99.90;;;;;;5053282;28;20225;-76
2022/01/19 15:41:31;;;;;;;50.57;28.27;;;3.90;99.90;;;;;;5072186;28;20911;-73
2022/01/19 15:44:20;;;;;;;44.00;22.13;;;3.90;99.90;;;;;;5062278;28;20224;-74
2022/01/19 15:47:09;;;;;;;48.97;26.93;;;3.80;99.90;;;;;;5061160;28;20220;-74
2022/01/19 15:50:00;;;;;;;51.20;26.83;;;3.80;99.90;;;;;;5066671;28;20308;-76